createdAt,value
2023-01-20T00:02:44.831Z,-0.79
2023-01-20T00:05:54.883Z,-0.77
2023-01-20T00:09:05.374Z,-0.74
2023-01-20T00:12:11.637Z,-0.75
2023-01-20T00:15:17.433Z,-0.78
2023-01-20T00:18:26.484Z,-0.79
2023-01-20T00:21:32.029Z,-0.76
2023-01-20T00:24:38.355Z,-0.73
2023-01-20T00:27:43.766Z,-0.69
2023-01-20T00:30:50.045Z,-0.66
2023-01-20T00:34:02.147Z,-0.66
2023-01-20T00:37:08.857Z,-0.70
2023-01-20T00:40:15.353Z,-0.76
2023-01-20T00:43:21.611Z,-0.82
2023-01-20T00:46:27.025Z,-0.92
2023-01-20T00:49:36.023Z,-0.99
2023-01-20T00:52:41.842Z,-1.04
2023-01-20T00:55:48.352Z,-1.04
2023-01-20T00:58:55.359Z,-1.03
2023-01-20T01:02:29.564Z,-1.04
2023-01-20T01:05:37.841Z,-1.07
2023-01-20T01:08:44.429Z,-1.09
2023-01-20T01:11:49.860Z,-1.10
2023-01-20T01:14:56.144Z,-1.13
2023-01-20T01:18:03.344Z,-1.19
2023-01-20T01:21:16.629Z,-1.20
2023-01-20T01:24:22.400Z,-1.26
2023-01-20T01:27:31.006Z,-1.15
2023-01-20T01:30:36.669Z,-1.11
2023-01-20T01:33:43.649Z,-1.05
2023-01-20T01:36:51.949Z,-0.94
2023-01-20T01:39:58.559Z,-0.90
2023-01-20T01:43:03.998Z,-0.88
2023-01-20T01:46:10.435Z,-0.91
2023-01-20T01:49:23.929Z,-1.03
2023-01-20T01:52:33.250Z,-1.13
2023-01-20T01:55:46.890Z,-1.16
2023-01-20T01:59:00.390Z,-1.29
2023-01-20T02:02:06.577Z,-1.37
2023-01-20T02:05:15.593Z,-1.54
2023-01-20T02:08:24.293Z,-1.67
2023-01-20T02:11:31.639Z,-1.78
2023-01-20T02:14:45.267Z,-1.88
2023-01-20T02:18:27.819Z,-1.85
2023-01-20T02:22:07.581Z,-1.89
2023-01-20T02:26:06.294Z,-1.96
2023-01-20T02:30:15.463Z,-1.96
2023-01-20T02:33:35.743Z,-2.02
2023-01-20T02:36:50.882Z,-2.09
2023-01-20T02:40:17.808Z,-2.22
2023-01-20T02:43:36.803Z,-2.40
2023-01-20T02:46:55.364Z,-2.53
2023-01-20T02:50:14.471Z,-2.65
2023-01-20T02:53:26.575Z,-2.72
2023-01-20T02:56:36.230Z,-2.76
2023-01-20T02:59:53.716Z,-2.62
2023-01-20T03:03:05.748Z,-2.52
2023-01-20T03:06:24.848Z,-2.54
2023-01-20T03:09:40.783Z,-2.44
2023-01-20T03:12:56.206Z,-2.40
2023-01-20T03:16:08.186Z,-2.37
2023-01-20T03:19:15.176Z,-2.37
2023-01-20T03:22:23.526Z,-2.45
2023-01-20T03:25:30.301Z,-2.56
2023-01-20T03:28:36.143Z,-2.40
2023-01-20T03:31:49.760Z,-2.34
2023-01-20T03:34:59.832Z,-2.25
2023-01-20T03:38:10.251Z,-2.10
2023-01-20T03:41:29.559Z,-1.96
2023-01-20T03:45:00.816Z,-1.85
2023-01-20T03:48:19.059Z,-1.73
2023-01-20T03:51:38.115Z,-1.72
2023-01-20T03:54:56.832Z,-1.78
2023-01-20T03:58:09.511Z,-1.94
2023-01-20T04:01:19.824Z,-2.05
2023-01-20T04:04:27.256Z,-2.23
2023-01-20T04:07:36.247Z,-2.18
2023-01-20T04:10:51.551Z,-2.30
2023-01-20T04:13:58.443Z,-2.39
2023-01-20T04:17:08.135Z,-2.44
2023-01-20T04:20:19.028Z,-2.52
2023-01-20T04:23:35.577Z,-2.69
2023-01-20T04:26:44.151Z,-2.81
2023-01-20T04:29:50.602Z,-2.90
2023-01-20T04:32:56.032Z,-2.99
2023-01-20T04:36:02.501Z,-3.09
2023-01-20T04:39:07.975Z,-3.28
2023-01-20T04:42:17.235Z,-3.36
2023-01-20T04:45:22.658Z,-3.58
2023-01-20T04:48:29.046Z,-3.69
2023-01-20T04:51:35.589Z,-3.75
2023-01-20T04:54:42.108Z,-3.82
2023-01-20T04:57:50.776Z,-3.84
2023-01-20T05:00:57.104Z,-3.91
2023-01-20T05:04:02.791Z,-3.92
2023-01-20T05:07:09.147Z,-3.96
2023-01-20T05:10:15.154Z,-4.24
2023-01-20T05:13:24.933Z,-4.03
2023-01-20T05:16:32.240Z,-4.02
2023-01-20T05:19:38.483Z,-3.98
2023-01-20T05:22:44.263Z,-3.93
2023-01-20T05:25:54.413Z,-4.00
2023-01-20T05:29:02.903Z,-3.97
2023-01-20T05:32:09.270Z,-3.99
2023-01-20T05:35:14.920Z,-4.00
2023-01-20T05:38:21.730Z,-4.02
2023-01-20T05:41:27.150Z,-4.03
2023-01-20T05:44:36.344Z,-4.07
2023-01-20T05:47:41.827Z,-4.13
2023-01-20T05:50:48.112Z,-4.16
2023-01-20T05:53:54.056Z,-4.20
2023-01-20T05:57:00.840Z,-4.22
2023-01-20T06:00:12.781Z,-4.09
2023-01-20T06:03:19.023Z,-3.97
2023-01-20T06:06:24.749Z,-3.88
2023-01-20T06:09:31.198Z,-3.80
2023-01-20T06:12:36.586Z,-3.74
2023-01-20T06:15:45.655Z,-3.73
2023-01-20T06:18:51.123Z,-3.68
2023-01-20T06:21:57.332Z,-3.55
2023-01-20T06:25:02.916Z,-3.55
2023-01-20T06:28:09.327Z,-3.41
2023-01-20T06:31:19.909Z,-3.38
2023-01-20T06:34:26.280Z,-3.22
2023-01-20T06:37:31.922Z,-3.13
2023-01-20T06:40:38.218Z,-3.13
2023-01-20T06:43:43.667Z,-3.15
2023-01-20T06:46:52.713Z,-3.20
2023-01-20T06:49:58.242Z,-3.23
2023-01-20T06:53:04.515Z,-3.41
2023-01-20T06:56:12.465Z,-3.47
2023-01-20T06:59:18.960Z,-3.46
2023-01-20T07:02:27.237Z,-3.51
2023-01-20T07:05:34.430Z,-3.53
2023-01-20T07:08:40.075Z,-3.61
2023-01-20T07:11:46.502Z,-3.70
2023-01-20T07:14:51.964Z,-3.60
2023-01-20T07:18:01.662Z,-3.60
2023-01-20T07:21:07.966Z,-3.59
2023-01-20T07:24:14.472Z,-3.57
2023-01-20T07:27:20.359Z,-3.51
2023-01-20T07:30:26.818Z,-3.37
2023-01-20T07:33:35.874Z,-3.33
2023-01-20T07:36:42.195Z,-3.68
2023-01-20T07:39:47.966Z,-3.42
2023-01-20T07:42:54.687Z,-3.27
2023-01-20T07:46:00.557Z,-3.73
2023-01-20T07:49:12.078Z,-3.11
2023-01-20T07:52:18.107Z,-3.07
2023-01-20T07:55:25.264Z,-3.05
2023-01-20T07:58:31.659Z,-3.02
2023-01-20T08:01:40.433Z,-3.01
2023-01-20T08:04:48.996Z,-3.11
2023-01-20T08:07:55.509Z,-2.97
2023-01-20T08:11:01.589Z,-2.96
2023-01-20T08:14:08.445Z,-2.89
2023-01-20T08:17:14.144Z,-2.83
2023-01-20T08:20:23.318Z,-2.88
2023-01-20T08:23:29.232Z,-4.37
2023-01-20T08:26:37.485Z,-2.82
2023-01-20T08:29:42.964Z,-2.79
2023-01-20T08:32:49.220Z,-2.72
2023-01-20T08:35:59.420Z,-2.71
2023-01-20T08:39:10.835Z,-2.75
2023-01-20T08:42:16.235Z,-2.70
2023-01-20T08:45:22.627Z,-2.65
2023-01-20T08:48:28.256Z,-2.60
2023-01-20T08:51:37.869Z,-2.67
2023-01-20T08:54:43.896Z,-2.53
2023-01-20T08:57:50.162Z,-2.35
2023-01-20T09:00:56.196Z,-2.27
2023-01-20T09:04:06.308Z,-2.20
2023-01-20T09:07:16.619Z,-2.16
2023-01-20T09:10:23.172Z,-2.11
2023-01-20T09:13:28.657Z,-2.15
2023-01-20T09:16:35.609Z,-2.04
2023-01-20T09:19:41.649Z,-1.99
2023-01-20T09:22:50.834Z,-1.95
2023-01-20T09:25:57.007Z,-1.82
2023-01-20T09:29:10.041Z,-1.73
2023-01-20T09:32:16.696Z,-1.72
2023-01-20T09:35:23.624Z,-2.39
2023-01-20T09:38:48.888Z,-1.81
2023-01-20T09:42:11.387Z,-1.78
2023-01-20T09:45:29.433Z,-1.78
2023-01-20T09:49:10.706Z,-1.74
2023-01-20T09:52:45.447Z,-1.70
2023-01-20T09:55:59.719Z,-1.72
2023-01-20T09:59:16.411Z,-1.49
2023-01-20T10:02:33.839Z,-1.46
2023-01-20T10:05:43.315Z,-1.52
2023-01-20T10:09:06.661Z,-1.56
2023-01-20T10:12:24.633Z,-1.58
2023-01-20T10:15:38.920Z,-1.54
2023-01-20T10:18:58.507Z,-1.53
2023-01-20T10:22:18.400Z,-1.56
2023-01-20T10:25:31.196Z,-1.58
2023-01-20T10:28:50.284Z,-1.48
2023-01-20T10:32:04.923Z,-1.50
2023-01-20T10:35:22.109Z,-1.41
2023-01-20T10:38:42.760Z,-1.35
2023-01-20T10:41:58.178Z,-1.34
2023-01-20T10:45:06.822Z,-1.40
2023-01-20T10:48:38.722Z,-1.49
2023-01-20T10:52:02.778Z,-1.52
2023-01-20T10:55:27.199Z,-1.67
2023-01-20T10:58:39.010Z,-1.76
2023-01-20T11:02:06.315Z,-1.72
2023-01-20T11:05:22.818Z,-1.72
2023-01-20T11:08:33.491Z,-1.64
2023-01-20T11:11:40.937Z,-1.58
2023-01-20T11:14:50.179Z,-1.48
2023-01-20T11:18:31.014Z,-1.42
2023-01-20T11:21:41.025Z,-1.16
2023-01-20T11:24:48.776Z,-1.16
2023-01-20T11:27:55.929Z,-1.18
2023-01-20T11:31:02.300Z,-1.17
2023-01-20T11:34:26.702Z,-1.21
2023-01-20T11:37:40.918Z,-1.24
2023-01-20T11:40:57.503Z,-1.36
2023-01-20T11:44:04.479Z,-1.35
2023-01-20T11:47:26.610Z,-1.33
2023-01-20T11:50:40.467Z,-1.34
2023-01-20T11:53:47.064Z,-1.42
2023-01-20T11:57:00.039Z,-1.51
2023-01-20T12:00:07.954Z,-1.47
2023-01-20T12:04:02.616Z,-1.48
2023-01-20T12:07:21.849Z,-1.47
2023-01-20T12:10:36.005Z,-1.48
2023-01-20T12:14:18.630Z,-1.46
2023-01-20T12:17:47.239Z,-1.52
2023-01-20T12:21:08.198Z,-1.43
2023-01-20T12:24:35.476Z,-1.45
2023-01-20T12:27:54.827Z,-1.31
2023-01-20T12:31:05.337Z,-1.30
2023-01-20T12:34:18.480Z,-1.30
2023-01-20T12:37:42.747Z,-1.24
2023-01-20T12:40:55.850Z,-1.27
2023-01-20T12:44:19.139Z,-1.37
2023-01-20T12:47:58.267Z,-1.37
2023-01-20T12:51:38.859Z,-1.54
2023-01-20T12:55:29.565Z,-1.47
2023-01-20T12:58:56.768Z,-1.65
2023-01-20T13:02:45.275Z,-1.52
2023-01-20T13:06:39.779Z,-1.45
2023-01-20T13:10:19.727Z,-1.46
2023-01-20T13:13:56.733Z,-1.60
2023-01-20T13:17:18.967Z,-1.56
2023-01-20T13:20:30.444Z,-1.47
2023-01-20T13:23:40.280Z,-1.57
2023-01-20T13:26:46.584Z,-1.59
2023-01-20T13:30:03.267Z,-1.53
2023-01-20T13:33:18.304Z,-1.57
2023-01-20T13:36:28.135Z,-1.72
2023-01-20T13:39:49.139Z,-1.72
2023-01-20T13:42:55.947Z,-1.81
2023-01-20T13:46:49.290Z,-1.87
2023-01-20T13:49:57.455Z,-1.85
2023-01-20T13:53:31.617Z,-1.98
2023-01-20T13:56:50.321Z,-1.84
2023-01-20T13:59:55.939Z,-1.77
2023-01-20T14:03:24.563Z,-1.72
2023-01-20T14:06:30.333Z,-1.64
2023-01-20T14:09:37.573Z,-1.64
2023-01-20T14:12:44.732Z,-1.62
2023-01-20T14:15:57.286Z,-1.79
2023-01-20T14:19:22.448Z,-1.63
2023-01-20T14:22:32.887Z,-1.66
2023-01-20T14:25:38.356Z,-1.55
2023-01-20T14:28:51.884Z,-1.57
2023-01-20T14:31:57.870Z,-1.53
2023-01-20T14:35:21.235Z,-1.47
2023-01-20T14:38:26.787Z,-1.49
2023-01-20T14:41:37.870Z,-1.48
2023-01-20T14:44:43.278Z,-1.44
2023-01-20T14:47:50.495Z,-1.45
2023-01-20T14:50:58.820Z,-1.56
2023-01-20T14:54:36.978Z,-1.73
2023-01-20T14:57:46.259Z,-1.67
2023-01-20T15:00:54.836Z,-1.68
2023-01-20T15:04:06.121Z,-1.81
2023-01-20T15:07:23.763Z,-1.79
2023-01-20T15:10:29.312Z,-1.79
2023-01-20T15:13:37.689Z,-1.95
2023-01-20T15:16:53.785Z,-2.50
2023-01-20T15:20:00.131Z,-2.05
2023-01-20T15:23:23.867Z,-2.07
2023-01-20T15:26:34.672Z,-1.88
2023-01-20T15:29:40.332Z,-1.91
2023-01-20T15:32:46.586Z,-1.87
2023-01-20T15:35:57.854Z,-1.88
2023-01-20T15:39:07.204Z,-1.96
2023-01-20T15:42:15.551Z,-2.00
2023-01-20T15:45:22.680Z,-2.06
2023-01-20T15:48:28.356Z,-2.06
2023-01-20T15:51:34.633Z,-2.07
2023-01-20T15:54:42.876Z,-2.20
2023-01-20T15:57:55.095Z,-2.14
2023-01-20T16:01:02.647Z,-2.16
2023-01-20T16:04:09.345Z,-2.10
2023-01-20T16:07:19.423Z,-2.06
2023-01-20T16:10:28.574Z,-1.97
2023-01-20T16:13:34.224Z,-1.91
2023-01-20T16:16:40.588Z,-1.83
2023-01-20T16:19:46.027Z,-2.04
2023-01-20T16:22:52.721Z,-1.74
2023-01-20T16:26:01.438Z,-1.72
2023-01-20T16:29:08.060Z,-1.81
2023-01-20T16:32:15.897Z,-1.87
2023-01-20T16:35:25.709Z,-1.86
2023-01-20T16:38:31.598Z,-1.88
2023-01-20T16:41:41.270Z,-1.91
2023-01-20T16:44:46.911Z,-1.89
2023-01-20T16:47:53.893Z,-1.83
2023-01-20T16:51:04.730Z,-1.89
2023-01-20T16:54:12.833Z,-1.95
2023-01-20T16:57:21.194Z,-2.03
2023-01-20T17:00:30.200Z,-2.16
2023-01-20T17:03:35.658Z,-2.15
2023-01-20T17:06:42.381Z,-2.09
2023-01-20T17:09:47.834Z,-2.21
2023-01-20T17:12:59.121Z,-2.10
2023-01-20T17:16:05.917Z,-2.24
2023-01-20T17:19:13.341Z,-2.20
2023-01-20T17:22:20.540Z,-2.24
2023-01-20T17:25:27.203Z,-2.31
2023-01-20T17:28:35.880Z,-2.29
2023-01-20T17:31:43.121Z,-2.41
2023-01-20T17:34:50.492Z,-2.33
2023-01-20T17:37:56.807Z,-2.23
2023-01-20T17:41:04.731Z,-2.18
2023-01-20T17:44:15.258Z,-2.17
2023-01-20T17:47:20.676Z,-2.22
2023-01-20T17:50:27.038Z,-2.24
2023-01-20T17:53:32.490Z,-2.32
2023-01-20T17:56:38.819Z,-2.32
2023-01-20T17:59:47.051Z,-2.35
2023-01-20T18:02:53.717Z,-2.37
2023-01-20T18:05:59.155Z,-2.42
2023-01-20T18:09:05.787Z,-2.48
2023-01-20T18:12:11.355Z,-2.35
2023-01-20T18:15:21.517Z,-2.39
2023-01-20T18:18:27.479Z,-2.44
2023-01-20T18:21:37.032Z,-2.44
2023-01-20T18:24:45.638Z,-2.55
2023-01-20T18:27:52.007Z,-2.56
2023-01-20T18:31:08.670Z,-2.66
2023-01-20T18:34:18.232Z,-2.57
2023-01-20T18:37:23.757Z,-2.56
2023-01-20T18:40:30.062Z,-2.61
2023-01-20T18:43:35.635Z,-2.65
2023-01-20T18:46:44.808Z,-2.67
2023-01-20T18:49:50.166Z,-2.65
2023-01-20T18:52:58.563Z,-2.59
2023-01-20T18:56:04.740Z,-2.63
2023-01-20T18:59:11.578Z,-2.56
2023-01-20T19:02:19.823Z,-2.58
2023-01-20T19:05:26.256Z,-2.59
2023-01-20T19:08:31.882Z,-2.65
2023-01-20T19:11:41.529Z,-2.66
2023-01-20T19:14:46.998Z,-2.62
2023-01-20T19:17:56.953Z,-2.54
2023-01-20T19:21:08.141Z,-2.62
2023-01-20T19:24:22.141Z,-2.66
2023-01-20T19:27:27.883Z,-2.58
2023-01-20T19:30:34.299Z,-2.69
2023-01-20T19:33:43.493Z,-2.77
2023-01-20T19:36:49.812Z,-2.66
2023-01-20T19:39:55.277Z,-2.65
2023-01-20T19:43:01.854Z,-2.70
2023-01-20T19:46:10.358Z,-2.68
2023-01-20T19:49:19.456Z,-2.77
2023-01-20T19:52:25.017Z,-2.75
2023-01-20T19:55:31.913Z,-2.77
2023-01-20T19:58:39.050Z,-2.92
2023-01-20T20:01:45.860Z,-2.74
2023-01-20T20:04:54.648Z,-2.69
2023-01-20T20:08:03.617Z,-2.75
2023-01-20T20:11:14.256Z,-2.70
2023-01-20T20:14:27.475Z,-2.70
2023-01-20T20:17:33.996Z,-2.67
2023-01-20T20:20:44.790Z,-2.90
2023-01-20T20:23:53.854Z,-2.68
2023-01-20T20:27:01.037Z,-2.66
2023-01-20T20:30:08.786Z,-2.66
2023-01-20T20:33:17.702Z,-2.65
2023-01-20T20:36:28.533Z,-2.60
2023-01-20T20:39:35.558Z,-2.62
2023-01-20T20:42:41.782Z,-2.64
2023-01-20T20:45:48.977Z,-2.68
2023-01-20T20:48:59.511Z,-2.68
2023-01-20T20:52:09.609Z,-2.86
2023-01-20T20:55:15.720Z,-2.81
2023-01-20T20:58:22.992Z,-2.79
2023-01-20T21:01:29.399Z,-2.66
2023-01-20T21:04:37.412Z,-2.65
2023-01-20T21:07:45.928Z,-2.62
2023-01-20T21:10:52.412Z,-2.69
2023-01-20T21:13:58.475Z,-2.74
2023-01-20T21:17:05.219Z,-2.71
2023-01-20T21:20:13.307Z,-2.60
2023-01-20T21:23:23.063Z,-2.55
2023-01-20T21:26:31.566Z,-2.54
2023-01-20T21:29:38.799Z,-2.59
2023-01-20T21:32:44.566Z,-2.52
2023-01-20T21:35:51.281Z,-2.53
2023-01-20T21:39:00.829Z,-2.57
2023-01-20T21:42:09.332Z,-2.55
2023-01-20T21:45:15.173Z,-2.49
2023-01-20T21:48:33.756Z,-2.49
2023-01-20T21:51:55.312Z,-2.59
2023-01-20T21:55:04.670Z,-2.44
2023-01-20T21:58:10.550Z,-2.38
2023-01-20T22:01:16.986Z,-2.35
2023-01-20T22:04:23.805Z,-2.28
2023-01-20T22:07:30.236Z,-2.25
2023-01-20T22:10:38.535Z,-2.24
2023-01-20T22:13:55.720Z,-2.32
2023-01-20T22:17:13.650Z,-2.33
2023-01-20T22:20:20.890Z,-2.33
2023-01-20T22:23:26.720Z,-2.33
2023-01-20T22:26:36.114Z,-2.26
2023-01-20T22:29:41.630Z,-2.24
2023-01-20T22:32:48.182Z,-2.27
2023-01-20T22:35:57.852Z,-2.23
2023-01-20T22:39:05.383Z,-2.31
2023-01-20T22:42:13.593Z,-2.35
2023-01-20T22:45:20.229Z,-2.29
2023-01-20T22:48:25.619Z,-2.36
2023-01-20T22:51:33.630Z,-2.33
2023-01-20T22:54:39.102Z,-2.33
2023-01-20T22:57:48.240Z,-2.32
2023-01-20T23:00:53.696Z,-2.34
2023-01-20T23:04:03.236Z,-2.29
2023-01-20T23:07:08.701Z,-2.43
2023-01-20T23:10:36.493Z,-2.37
2023-01-20T23:13:45.692Z,-2.41
2023-01-20T23:16:52.547Z,-2.45
2023-01-20T23:19:59.199Z,-2.42
2023-01-20T23:23:05.937Z,-2.42
2023-01-20T23:26:17.346Z,-2.70
2023-01-20T23:29:26.451Z,-2.58
2023-01-20T23:32:32.691Z,-2.54
2023-01-20T23:35:41.115Z,-2.57
2023-01-20T23:38:48.653Z,-2.56
2023-01-20T23:41:55.085Z,-2.49
2023-01-20T23:45:03.542Z,-2.47
2023-01-20T23:48:10.719Z,-2.54
2023-01-20T23:51:17.103Z,-2.49
2023-01-20T23:54:23.777Z,-2.50
2023-01-20T23:57:29.153Z,-2.42
